createdAt,value
2019-01-29T00:02:47.229Z,17.77
2019-01-29T00:07:42.926Z,18.47
2019-01-29T00:12:38.657Z,17.50
2019-01-29T00:17:34.425Z,18.67
2019-01-29T00:22:33.497Z,19.37
2019-01-29T00:27:28.030Z,18.43
2019-01-29T00:32:23.664Z,18.67
2019-01-29T00:37:19.365Z,18.23
2019-01-29T00:42:15.103Z,20.97
2019-01-29T00:47:10.864Z,19.33
2019-01-29T00:52:07.771Z,19.80
2019-01-29T00:57:03.437Z,18.93
2019-01-29T01:01:59.090Z,19.23
2019-01-29T01:06:54.789Z,19.70
2019-01-29T01:11:50.542Z,18.50
2019-01-29T01:16:46.204Z,17.97
2019-01-29T01:21:42.056Z,16.93
2019-01-29T01:26:37.756Z,18.40
2019-01-29T01:31:33.390Z,18.17
2019-01-29T01:36:29.705Z,17.43
2019-01-29T01:41:25.446Z,18.83
2019-01-29T01:46:21.215Z,17.53
2019-01-29T01:51:16.929Z,17.10
2019-01-29T01:56:12.684Z,15.67
2019-01-29T02:01:08.313Z,16.50
2019-01-29T02:06:05.147Z,16.47
2019-01-29T02:11:01.884Z,16.23
2019-01-29T02:15:57.621Z,17.00
2019-01-29T02:20:53.340Z,15.37
2019-01-29T02:25:48.976Z,14.33
2019-01-29T02:30:44.822Z,15.20
2019-01-29T02:35:40.452Z,15.80
2019-01-29T02:40:36.399Z,15.77
2019-01-29T02:45:32.067Z,16.87
2019-01-29T02:50:27.758Z,15.53
2019-01-29T02:55:23.383Z,16.87
2019-01-29T03:00:21.226Z,15.43
2019-01-29T03:05:17.421Z,14.57
2019-01-29T03:10:16.314Z,14.80
2019-01-29T03:15:15.772Z,14.23
2019-01-29T03:20:12.107Z,13.63
2019-01-29T03:25:09.945Z,14.30
2019-01-29T03:30:06.495Z,14.50
2019-01-29T03:35:02.393Z,13.53
2019-01-29T03:39:58.086Z,12.10
2019-01-29T03:44:53.854Z,12.33
2019-01-29T03:49:49.648Z,11.50
2019-01-29T03:54:45.313Z,13.27
2019-01-29T03:59:40.962Z,13.10
2019-01-29T04:04:36.689Z,12.87
2019-01-29T04:09:33.601Z,11.47
2019-01-29T04:14:29.298Z,11.10
2019-01-29T04:19:27.588Z,11.73
2019-01-29T04:24:23.430Z,10.80
2019-01-29T04:29:19.173Z,12.10
2019-01-29T04:34:15.161Z,13.23
2019-01-29T04:39:11.016Z,13.13
2019-01-29T04:44:06.907Z,12.47
2019-01-29T04:49:02.668Z,12.00
2019-01-29T04:53:58.363Z,13.27
2019-01-29T04:58:54.343Z,11.97
2019-01-29T05:03:50.392Z,12.07
2019-01-29T05:08:46.094Z,11.67
2019-01-29T05:13:41.852Z,11.63
2019-01-29T05:18:37.627Z,11.83
2019-01-29T05:23:33.327Z,11.30
2019-01-29T05:28:28.982Z,12.10
2019-01-29T05:33:24.767Z,11.70
2019-01-29T05:38:20.359Z,13.37
2019-01-29T05:43:16.030Z,10.67
2019-01-29T05:48:11.726Z,10.87
2019-01-29T05:53:07.451Z,10.80
2019-01-29T05:58:04.686Z,11.27
2019-01-29T06:03:00.324Z,11.50
2019-01-29T06:07:56.199Z,12.67
2019-01-29T06:19:11.961Z,13.47
2019-01-29T06:24:07.749Z,26.07
2019-01-29T06:29:03.460Z,22.60
2019-01-29T06:33:59.300Z,16.93
2019-01-29T06:38:55.089Z,30.47
2019-01-29T06:43:50.828Z,36.97
2019-01-29T06:48:46.617Z,19.30
2019-01-29T06:53:42.353Z,26.43
2019-01-29T06:58:38.052Z,15.57
2019-01-29T07:03:33.765Z,17.57
2019-01-29T07:08:29.921Z,15.23
2019-01-29T07:13:25.551Z,47.40
2019-01-29T07:18:52.370Z,17.57
2019-01-29T07:23:48.204Z,22.27
2019-01-29T07:28:43.881Z,27.73
2019-01-29T07:33:39.726Z,17.20
2019-01-29T07:38:35.736Z,10.73
2019-01-29T07:43:32.533Z,11.67
2019-01-29T07:48:28.303Z,11.83
2019-01-29T07:53:24.084Z,11.40
2019-01-29T07:58:19.953Z,12.30
2019-01-29T08:03:18.659Z,11.73
2019-01-29T08:08:25.164Z,12.23
2019-01-29T08:13:27.459Z,11.27
2019-01-29T08:18:23.386Z,12.07
2019-01-29T08:23:19.145Z,8.63
2019-01-29T08:28:15.057Z,10.93
2019-01-29T08:33:10.872Z,12.27
2019-01-29T08:38:06.690Z,14.53
2019-01-29T08:43:02.959Z,13.67
2019-01-29T08:47:59.809Z,14.90
2019-01-29T08:52:56.602Z,8.97
2019-01-29T08:57:52.498Z,11.20
2019-01-29T09:02:48.427Z,11.27
2019-01-29T09:07:44.159Z,8.37
2019-01-29T09:12:39.956Z,9.07
2019-01-29T09:17:35.727Z,8.47
2019-01-29T09:22:31.782Z,9.50
2019-01-29T09:27:29.017Z,9.73
2019-01-29T09:32:24.804Z,11.70
2019-01-29T09:37:20.813Z,12.17
2019-01-29T09:42:16.493Z,10.70
2019-01-29T09:47:12.141Z,10.40
2019-01-29T09:52:07.916Z,10.20
2019-01-29T09:57:03.514Z,9.53
2019-01-29T10:01:59.199Z,9.97
2019-01-29T10:06:55.013Z,10.87
2019-01-29T10:11:50.763Z,12.03
2019-01-29T10:16:46.644Z,14.10
2019-01-29T10:21:42.455Z,13.30
2019-01-29T10:26:38.220Z,13.17
2019-01-29T10:31:33.980Z,13.20
2019-01-29T10:36:29.886Z,14.67
2019-01-29T10:41:25.635Z,11.87
2019-01-29T10:46:21.494Z,11.53
2019-01-29T10:51:17.345Z,12.83
2019-01-29T10:56:13.453Z,11.80
2019-01-29T11:01:09.460Z,6.63
2019-01-29T11:06:05.559Z,5.60
2019-01-29T11:11:01.372Z,4.77
2019-01-29T11:15:58.660Z,8.50
2019-01-29T11:20:54.440Z,4.03
2019-01-29T11:25:55.772Z,2.77
2019-01-29T11:30:48.026Z,2.57
2019-01-29T11:35:45.333Z,2.63
2019-01-29T11:40:41.201Z,1.60
2019-01-29T11:45:49.365Z,1.80
2019-01-29T11:50:45.200Z,1.70
2019-01-29T11:55:42.116Z,1.60
2019-01-29T12:00:52.901Z,1.30
2019-01-29T12:05:50.043Z,1.40
2019-01-29T12:10:46.163Z,1.10
2019-01-29T12:15:44.252Z,1.70
2019-01-29T12:20:40.192Z,1.90
2019-01-29T12:25:36.321Z,1.70
2019-01-29T12:30:32.417Z,1.60
2019-01-29T12:35:28.216Z,1.60
2019-01-29T12:40:24.078Z,1.50
2019-01-29T12:45:20.345Z,1.60
2019-01-29T12:50:20.186Z,1.70
2019-01-29T12:55:16.113Z,2.40
2019-01-29T13:00:14.349Z,2.40
2019-01-29T13:05:11.758Z,3.00
2019-01-29T13:10:11.162Z,3.60
2019-01-29T13:15:09.556Z,3.23
2019-01-29T13:20:06.512Z,3.70
2019-01-29T13:25:02.838Z,3.33
2019-01-29T13:29:58.958Z,4.10
2019-01-29T13:34:54.711Z,3.70
2019-01-29T13:39:50.374Z,3.70
2019-01-29T13:44:49.687Z,3.63
2019-01-29T13:49:48.889Z,3.50
2019-01-29T13:54:45.499Z,3.60
2019-01-29T13:59:41.401Z,3.30
2019-01-29T14:04:38.170Z,3.43
2019-01-29T14:09:34.077Z,5.00
2019-01-29T14:14:32.459Z,4.63
2019-01-29T14:19:28.715Z,4.63
2019-01-29T14:24:24.523Z,3.93
2019-01-29T14:29:20.476Z,6.33
2019-01-29T14:34:16.353Z,3.93
2019-01-29T14:39:26.642Z,3.60
2019-01-29T14:44:29.818Z,3.83
2019-01-29T14:49:25.693Z,3.30
2019-01-29T14:54:21.469Z,3.43
2019-01-29T14:59:17.390Z,4.03
2019-01-29T15:04:13.206Z,4.60
2019-01-29T15:09:12.898Z,4.93
2019-01-29T15:14:12.159Z,5.67
2019-01-29T15:19:11.386Z,6.10
2019-01-29T15:24:08.904Z,7.10
2019-01-29T15:29:04.706Z,6.73
2019-01-29T15:34:00.559Z,6.87
2019-01-29T15:38:56.351Z,8.17
2019-01-29T15:43:53.463Z,10.23
2019-01-29T15:48:49.431Z,9.07
2019-01-29T15:53:45.210Z,8.97
2019-01-29T15:58:41.076Z,9.73
2019-01-29T16:03:36.857Z,8.50
2019-01-29T16:08:32.784Z,7.00
2019-01-29T16:13:28.768Z,7.73
2019-01-29T16:18:24.615Z,8.47
2019-01-29T16:23:20.398Z,9.07
2019-01-29T16:28:16.195Z,9.60
2019-01-29T16:33:11.955Z,9.50
2019-01-29T16:38:07.739Z,10.07
2019-01-29T16:43:04.057Z,9.17
2019-01-29T16:48:02.254Z,9.30
2019-01-29T16:52:59.211Z,9.07
2019-01-29T16:57:55.038Z,8.77
2019-01-29T17:02:50.810Z,10.73
2019-01-29T17:07:46.958Z,11.17
2019-01-29T17:12:42.728Z,12.03
2019-01-29T17:17:38.961Z,17.20
2019-01-29T17:22:34.839Z,23.40
2019-01-29T17:27:40.086Z,22.73
2019-01-29T17:32:32.919Z,39.87
2019-01-29T17:37:28.938Z,46.87
2019-01-29T17:42:24.767Z,16.33
2019-01-29T17:47:20.721Z,12.70
2019-01-29T17:52:16.918Z,20.17
2019-01-29T17:57:12.754Z,18.90
2019-01-29T18:02:09.230Z,16.33
2019-01-29T18:07:05.586Z,16.37
2019-01-29T18:12:01.463Z,18.03
2019-01-29T18:16:57.239Z,25.20
2019-01-29T18:21:57.059Z,23.50
2019-01-29T18:26:51.562Z,17.70
2019-01-29T18:31:47.357Z,13.37
2019-01-29T18:36:43.173Z,13.37
2019-01-29T18:41:39.561Z,22.97
2019-01-29T18:46:35.388Z,25.70
2019-01-29T18:51:31.191Z,41.37
2019-01-29T18:56:27.123Z,37.77
2019-01-29T19:01:23.017Z,31.33
2019-01-29T19:06:18.791Z,27.70
2019-01-29T19:11:16.035Z,27.47
2019-01-29T19:16:12.547Z,21.10
2019-01-29T19:21:08.327Z,23.00
2019-01-29T19:26:05.811Z,24.77
2019-01-29T19:31:01.716Z,29.40
2019-01-29T19:35:57.510Z,31.57
2019-01-29T19:40:53.447Z,30.90
2019-01-29T19:45:49.302Z,30.43
2019-01-29T19:50:45.353Z,29.40
2019-01-29T19:55:42.218Z,28.67
2019-01-29T20:00:40.766Z,25.90
2019-01-29T20:05:36.660Z,39.30
2019-01-29T20:10:35.102Z,28.57
2019-01-29T20:15:30.919Z,26.20
2019-01-29T20:20:33.862Z,34.53
2019-01-29T20:25:30.748Z,34.33
2019-01-29T20:30:28.495Z,26.60
2019-01-29T20:35:24.550Z,23.80
2019-01-29T20:40:20.778Z,22.37
2019-01-29T20:45:17.720Z,22.67
2019-01-29T20:50:16.931Z,23.33
2019-01-29T20:55:13.033Z,20.23
2019-01-29T21:00:16.360Z,25.77
2019-01-29T21:05:13.075Z,23.10
2019-01-29T21:10:11.254Z,16.20
2019-01-29T21:15:10.035Z,18.30
2019-01-29T21:20:07.112Z,18.13
2019-01-29T21:25:03.926Z,19.87
2019-01-29T21:29:59.736Z,21.87
2019-01-29T21:34:55.517Z,27.37
2019-01-29T21:39:54.102Z,27.73
2019-01-29T21:44:51.339Z,21.23
2019-01-29T21:49:48.977Z,18.67
2019-01-29T21:54:45.885Z,21.20
2019-01-29T21:59:43.226Z,21.03
2019-01-29T22:04:40.091Z,18.10
2019-01-29T22:09:35.924Z,17.60
2019-01-29T22:14:32.675Z,20.40
2019-01-29T22:19:30.706Z,20.60
2019-01-29T22:24:25.848Z,26.30
2019-01-29T22:29:23.471Z,23.57
2019-01-29T22:34:22.136Z,21.70
2019-01-29T22:39:17.949Z,27.00
2019-01-29T22:44:13.732Z,24.10
2019-01-29T22:49:09.473Z,28.97
2019-01-29T22:54:05.289Z,26.27
2019-01-29T22:59:01.103Z,20.93
2019-01-29T23:04:06.850Z,20.70
2019-01-29T23:09:03.442Z,19.67
2019-01-29T23:14:00.338Z,18.87
2019-01-29T23:18:56.147Z,18.80
2019-01-29T23:23:51.944Z,22.27
2019-01-29T23:28:47.713Z,22.67
2019-01-29T23:33:43.480Z,26.03
2019-01-29T23:38:39.317Z,25.97
2019-01-29T23:43:35.338Z,22.90
2019-01-29T23:48:31.175Z,23.27
2019-01-29T23:53:27.093Z,22.67
2019-01-29T23:58:22.996Z,22.30
